Time;durP1;ratioP1;P1;durP2;ratioP2;P2;SDS_P1;SDS_P2;PMS_P1;PMS_P2;Temp;Humidity;BMP_temperature;BMP_pressure;BME280_temperature;BME280_humidity;BME280_pressure;Samples;Min_cycle;Max_cycle;Signal;HPM_P1;HPM_P2
2022/02/06 00:00:52;;;;;;;;;3.00;2.00;;;;;9.08;68.98;102088.00;5060578;28;45280;-65
2022/02/06 00:03:19;;;;;;;;;5.00;2.00;;;;;9.09;68.85;102083.63;5056187;28;45385;-65
2022/02/06 00:05:47;;;;;;;;;6.00;3.00;;;;;9.09;69.13;102092.34;5055952;28;45722;-66
2022/02/06 00:08:12;;;;;;;;;3.25;2.50;;;;;9.09;69.26;102075.75;5063234;28;45411;-66
2022/02/06 00:10:39;;;;;;;;;9.00;6.75;;;;;9.08;69.17;102068.75;5059140;28;45484;-66
2022/02/06 00:13:05;;;;;;;;;10.75;5.25;;;;;9.08;69.08;102071.38;5063127;28;45648;-66
2022/02/06 00:15:30;;;;;;;;;9.50;6.00;;;;;9.03;69.34;102054.84;5057793;27;45483;-67
2022/02/06 00:17:55;;;;;;;;;5.00;2.00;;;;;9.02;69.48;102055.72;5058238;28;45815;-68
2022/02/06 00:20:23;;;;;;;;;4.50;2.00;;;;;8.97;69.28;102045.31;5057086;27;46557;-67
2022/02/06 00:22:56;;;;;;;;;6.75;4.50;;;;;8.93;69.26;102038.41;5054878;28;45367;-67
2022/02/06 00:25:38;;;;;;;;;10.75;6.00;;;;;8.85;69.36;102033.25;5065901;28;46184;-67
2022/02/06 00:28:17;;;;;;;;;5.25;1.75;;;;;8.82;69.90;102022.84;5054700;28;45787;-66
2022/02/06 00:33:19;;;;;;;;;2.75;2.00;;;;;8.78;70.29;102007.19;5058450;28;45343;-66
2022/02/06 00:43:26;;;;;;;;;3.00;3.00;;;;;8.83;70.19;102013.22;5060148;27;45452;-67
2022/02/06 00:45:51;;;;;;;;;3.75;2.50;;;;;8.84;70.05;102007.94;5055081;27;47614;-66
2022/02/06 00:48:26;;;;;;;;;10.50;4.50;;;;;8.84;70.25;101992.22;5056286;28;45580;-67
2022/02/06 00:51:03;;;;;;;;;2.00;2.00;;;;;8.90;70.81;101983.38;5059181;28;45568;-66
2022/02/06 00:53:29;;;;;;;;;2.00;2.00;;;;;8.91;70.55;101982.50;5054104;28;45411;-67
2022/02/06 00:55:54;;;;;;;;;4.00;3.00;;;;;8.91;70.46;101974.63;5055478;28;46422;-67
2022/02/06 00:58:19;;;;;;;;;4.00;4.00;;;;;8.94;70.21;101987.69;5055850;28;46560;-67
2022/02/06 01:00:45;;;;;;;;;3.25;2.50;;;;;8.92;70.49;101980.72;5056460;27;45466;-66
2022/02/06 01:03:10;;;;;;;;;3.00;1.75;;;;;8.89;70.69;101979.91;5053356;28;45835;-67
2022/02/06 01:05:35;;;;;;;;;11.75;8.50;;;;;8.89;70.78;102008.75;5054917;28;45577;-67
2022/02/06 01:08:01;;;;;;;;;7.00;3.00;;;;;8.92;70.51;101999.94;5059245;28;45387;-67
2022/02/06 01:10:27;;;;;;;;;3.75;3.00;;;;;8.94;70.81;101998.19;5058052;28;45329;-67
2022/02/06 01:13:02;;;;;;;;;5.25;3.00;;;;;8.97;71.09;102000.75;5055874;27;45514;-67
2022/02/06 01:15:34;;;;;;;;;5.75;4.75;;;;;8.97;70.63;102002.50;5056885;28;47157;-67
2022/02/06 01:18:06;;;;;;;;;5.00;2.00;;;;;8.96;71.08;102011.25;5052297;28;47014;-67
2022/02/06 01:20:37;;;;;;;;;11.75;8.00;;;;;8.98;70.96;102001.59;5052329;28;45584;-67
2022/02/06 01:25:37;;;;;;;;;4.00;2.50;;;;;8.97;70.63;102003.38;5055698;27;45598;-67
2022/02/06 01:28:08;;;;;;;;;1.50;1.00;;;;;8.99;70.74;101998.13;5052635;28;45372;-67
2022/02/06 01:33:37;;;;;;;;;2.00;1.75;;;;;8.98;70.62;101994.63;5015351;28;45378;-67
2022/02/06 01:36:22;;;;;;;;;6.25;3.00;;;;;8.92;71.12;101980.72;5013888;28;47194;-67
2022/02/06 01:41:23;;;;;;;;;7.00;1.75;;;;;8.99;71.04;101978.00;5026689;28;45420;-67
2022/02/06 01:43:58;;;;;;;;;5.75;2.00;;;;;8.96;71.35;101985.03;5014914;28;45642;-70
2022/02/06 02:00:40;;;;;;;;;7.00;4.00;;;;;8.95;71.18;101981.56;5017248;28;45420;-67
2022/02/06 02:06:19;;;;;;;;;5.75;3.00;;;;;8.90;71.71;101936.19;4931589;28;45328;-66
2022/02/06 02:11:47;;;;;;;;;5.75;2.25;;;;;8.85;72.06;101914.44;4990568;28;46873;-66
2022/02/06 02:15:08;;;;;;;;;2.00;1.50;;;;;8.83;71.76;101911.00;4988530;28;45728;-66
2022/02/06 02:20:46;;;;;;;;;5.25;2.00;;;;;8.84;71.73;101912.72;4876846;29;46063;-66
2022/02/06 02:23:56;;;;;;;;;4.00;2.25;;;;;8.82;72.14;101910.13;4872416;29;46068;-67
2022/02/06 02:47:16;;;;;;;;;3.25;2.75;;;;;8.82;72.07;101897.03;4926706;28;45354;-67
2022/02/06 02:49:50;;;;;;;;;5.00;3.00;;;;;8.89;72.05;101897.78;4915960;28;45504;-67
2022/02/06 02:52:49;;;;;;;;;2.00;1.50;;;;;8.90;72.09;101886.38;4937734;28;47372;-67
2022/02/06 02:55:18;;;;;;;;;6.50;3.00;;;;;8.95;71.66;101892.41;4966197;28;45878;-68
2022/02/06 02:58:42;;;;;;;;;3.00;3.00;;;;;8.95;71.81;101888.94;5052903;28;45535;-67
2022/02/06 03:00:39;;;;;;;;;4.00;4.00;;;;;8.97;71.73;101884.50;5051556;28;47620;-67
2022/02/06 03:03:27;;;;;;;;;1.75;1.00;;;;;9.01;71.53;101879.19;5051940;28;45991;-67
2022/02/06 03:05:54;;;;;;;;;2.00;2.00;;;;;9.04;71.99;101867.81;5060860;28;45350;-67
2022/02/06 03:08:21;;;;;;;;;2.00;2.00;;;;;9.03;71.76;101853.84;5054755;28;45400;-67
2022/02/06 03:10:47;;;;;;;;;4.25;1.75;;;;;9.08;72.22;101853.72;5063249;28;45479;-67
2022/02/06 03:13:14;;;;;;;;;4.00;2.25;;;;;9.07;72.17;101850.22;5055203;28;46562;-67
2022/02/06 03:18:20;;;;;;;;;1.75;1.75;;;;;9.13;71.80;101844.91;5051921;28;45333;-67
2022/02/06 03:20:48;;;;;;;;;2.00;2.00;;;;;9.14;71.90;101833.50;5054405;28;45285;-68
2022/02/06 03:23:15;;;;;;;;;5.00;2.75;;;;;9.15;72.40;101834.38;5056313;28;46173;-67
2022/02/06 03:25:51;;;;;;;;;2.00;1.00;;;;;9.17;71.88;101815.97;5052998;28;45916;-67
2022/02/06 03:28:17;;;;;;;;;2.00;2.00;;;;;9.18;72.19;101804.56;5052452;28;45415;-67
2022/02/06 03:30:42;;;;;;;;;6.25;1.75;;;;;9.20;72.57;101818.53;5067041;27;45711;-67
2022/02/06 03:33:09;;;;;;;;;1.00;1.00;;;;;9.19;72.64;101808.91;5057164;27;45712;-67
2022/02/06 03:35:34;;;;;;;;;1.75;1.00;;;;;9.21;73.01;101812.41;5051806;28;45368;-67
2022/02/06 03:38:00;;;;;;;;;2.00;2.00;;;;;9.22;72.75;101801.88;5071211;28;45406;-67
2022/02/06 03:40:28;;;;;;;;;2.75;1.50;;;;;9.19;72.99;101791.47;5068659;28;45436;-67
2022/02/06 03:45:38;;;;;;;;;1.50;1.00;;;;;9.21;73.04;101815.03;5055019;28;45588;-67
2022/02/06 03:48:14;;;;;;;;;3.00;3.00;;;;;9.18;73.03;101817.69;5055166;28;45460;-67
2022/02/06 03:50:45;;;;;;;;;4.75;2.25;;;;;9.17;73.51;101819.44;5055137;28;45435;-67
2022/02/06 03:53:12;;;;;;;;;4.25;2.25;;;;;9.14;73.83;101809.91;5038897;28;45579;-67
2022/02/06 03:55:37;;;;;;;;;2.50;2.50;;;;;9.13;73.56;101813.44;5056431;28;45764;-67
2022/02/06 03:58:02;;;;;;;;;6.75;2.00;;;;;9.11;74.01;101803.84;5057545;28;45628;-67
2022/02/06 04:00:28;;;;;;;;;2.50;2.00;;;;;9.12;73.60;101802.94;5065297;28;45591;-68
2022/02/06 04:02:53;;;;;;;;;1.00;1.00;;;;;9.10;73.95;101792.50;5053809;27;46592;-67
2022/02/06 04:05:19;;;;;;;;;0.00;0.00;;;;;9.13;74.28;101797.69;5053449;28;45412;-67
2022/02/06 04:07:46;;;;;;;;;1.00;1.00;;;;;9.10;73.97;101795.13;5058432;28;45784;-67
2022/02/06 04:10:13;;;;;;;;;1.50;1.00;;;;;9.08;74.21;101796.91;5053621;28;46705;-67
2022/02/06 04:12:41;;;;;;;;;1.75;1.75;;;;;9.04;74.04;101797.00;5054954;28;46148;-67
2022/02/06 04:15:21;;;;;;;;;2.00;2.00;;;;;9.06;74.33;101801.31;5056499;28;45917;-67
2022/02/06 04:18:05;;;;;;;;;3.00;1.75;;;;;9.04;73.95;101795.25;5054190;28;45993;-67
2022/02/06 04:20:30;;;;;;;;;6.75;2.00;;;;;8.89;74.29;101762.31;5062574;28;45435;-67
2022/02/06 04:22:56;;;;;;;;;6.00;3.00;;;;;9.05;74.45;101789.09;5063908;28;48617;-67
2022/02/06 04:25:21;;;;;;;;;6.50;2.00;;;;;9.06;74.84;101788.19;5057922;28;53562;-67
2022/02/06 04:27:46;;;;;;;;;1.75;1.75;;;;;9.04;74.58;101773.41;5054468;28;45445;-67
2022/02/06 04:30:12;;;;;;;;;3.67;2.67;;;;;9.04;74.87;101782.13;5053105;28;64692;-67
2022/02/06 04:32:37;;;;;;;;;6.75;3.00;;;;;8.99;74.69;101747.28;5054069;28;46282;-67
2022/02/06 04:35:03;;;;;;;;;1.75;1.75;;;;;9.02;74.82;101754.19;5067022;28;45453;-67
2022/02/06 04:37:49;;;;;;;;;2.25;2.25;;;;;9.04;75.50;101739.31;5055301;28;45756;-67
2022/02/06 04:40:40;;;;;;;;;5.00;3.00;;;;;9.03;75.38;101721.84;5054671;28;45230;-67
2022/02/06 05:30:16;;;;;;;;;2.25;1.75;;;;;8.88;76.13;101647.88;5021204;28;45314;-68
2022/02/06 05:33:14;;;;;;;;;2.50;2.50;;;;;8.85;75.96;101655.78;5015590;28;45768;-68
2022/02/06 05:35:35;;;;;;;;;2.25;2.25;;;;;8.86;76.50;101672.38;5021022;28;47200;-68
2022/02/06 05:38:00;;;;;;;;;2.50;1.00;;;;;8.85;76.66;101636.59;5019530;28;45549;-68
2022/02/06 05:40:26;;;;;;;;;4.50;2.00;;;;;8.83;76.19;101627.91;5015515;28;45346;-68
2022/02/06 05:42:51;;;;;;;;;2.00;2.00;;;;;8.85;77.01;101633.97;5017431;28;45370;-68
2022/02/06 05:45:19;;;;;;;;;2.50;2.00;;;;;8.80;76.63;101638.44;5016757;28;47035;-68
2022/02/06 05:47:45;;;;;;;;;5.75;1.00;;;;;8.82;76.45;101642.78;5016965;28;45880;-68
2022/02/06 05:50:13;;;;;;;;;5.50;2.75;;;;;8.77;77.01;101625.38;5014394;28;45370;-68
2022/02/06 05:52:38;;;;;;;;;1.00;1.00;;;;;8.81;76.51;101641.03;5016516;28;45523;-68
2022/02/06 05:55:05;;;;;;;;;2.00;2.00;;;;;8.74;76.61;101622.84;5017274;28;45512;-68
2022/02/06 05:57:31;;;;;;;;;1.25;1.00;;;;;8.79;76.87;101627.09;5041099;28;45434;-68
2022/02/06 05:59:56;;;;;;;;;5.50;2.25;;;;;8.79;77.20;101613.13;5052287;28;50712;-68
2022/02/06 06:02:21;;;;;;;;;2.50;2.50;;;;;8.81;77.28;101621.81;5052970;28;45540;-68
2022/02/06 06:04:47;;;;;;;;;3.00;2.00;;;;;8.79;77.31;101637.59;5053917;28;46613;-68
2022/02/06 06:07:12;;;;;;;;;2.00;2.00;;;;;8.82;76.84;101618.28;5054166;28;45383;-68
2022/02/06 06:09:37;;;;;;;;;2.75;2.75;;;;;8.77;76.89;101621.03;5052091;28;48089;-68
2022/02/06 06:12:04;;;;;;;;;5.00;2.00;;;;;8.78;77.04;101603.56;5053676;28;45440;-68
2022/02/06 06:14:30;;;;;;;;;6.75;2.25;;;;;8.82;77.32;101610.44;5052829;28;47735;-68
2022/02/06 06:16:56;;;;;;;;;5.00;2.00;;;;;8.82;77.60;101615.66;5053319;28;45914;-68
2022/02/06 06:19:21;;;;;;;;;2.50;2.50;;;;;8.84;77.72;101606.03;5054893;28;45388;-68
2022/02/06 06:21:53;;;;;;;;;2.25;2.25;;;;;8.83;78.19;101615.66;5053210;28;45289;-68
2022/02/06 06:24:19;;;;;;;;;5.75;3.00;;;;;8.83;77.61;101617.41;5053043;28;46080;-68
2022/02/06 06:26:44;;;;;;;;;1.50;1.50;;;;;8.82;77.82;101605.19;5053185;28;45320;-68
2022/02/06 06:29:10;;;;;;;;;2.00;1.00;;;;;8.84;78.04;101587.69;5053413;28;45369;-68
2022/02/06 06:31:35;;;;;;;;;3.00;1.50;;;;;8.87;77.74;101580.63;5055675;28;45391;-68
2022/02/06 06:34:00;;;;;;;;;2.00;1.25;;;;;8.89;78.04;101584.06;5052443;28;46339;-68
2022/02/06 06:36:30;;;;;;;;;1.00;1.00;;;;;8.91;78.21;101570.91;5052255;28;45454;-68
2022/02/06 06:38:55;;;;;;;;;1.00;1.00;;;;;8.92;77.89;101571.78;5053138;28;45387;-68
2022/02/06 06:41:20;;;;;;;;;1.25;1.25;;;;;8.93;77.79;101589.22;5053094;28;45409;-68
2022/02/06 06:43:45;;;;;;;;;4.50;1.00;;;;;8.89;77.97;101572.72;5053871;28;46478;-68
2022/02/06 06:46:12;;;;;;;;;1.25;1.00;;;;;8.88;78.06;101597.22;5053851;28;45409;-68
2022/02/06 06:48:37;;;;;;;;;2.50;2.50;;;;;8.87;78.05;101591.13;5051734;28;45565;-68
2022/02/06 06:51:03;;;;;;;;;3.00;2.50;;;;;8.77;78.11;101558.13;5052516;28;45496;-68
2022/02/06 06:53:29;;;;;;;;;3.00;2.00;;;;;8.88;78.11;101577.09;5052266;28;47428;-68
2022/02/06 06:56:03;;;;;;;;;1.00;1.00;;;;;8.87;78.66;101564.00;5052782;28;45363;-68
2022/02/06 06:58:33;;;;;;;;;5.50;2.00;;;;;8.88;78.54;101563.13;5054482;28;45353;-68
2022/02/06 07:03:31;;;;;;;;;1.50;1.00;;;;;8.85;78.38;101569.28;5051764;28;45307;-68
2022/02/06 07:05:56;;;;;;;;;2.00;2.00;;;;;8.87;78.77;101562.28;5051438;28;45672;-68
2022/02/06 07:08:21;;;;;;;;;3.00;1.00;;;;;8.86;78.88;101560.53;5049866;28;45242;-68
2022/02/06 07:10:48;;;;;;;;;3.00;2.00;;;;;8.85;78.73;101550.09;5054474;28;46110;-68
2022/02/06 07:13:13;;;;;;;;;1.00;1.00;;;;;8.85;79.03;101552.72;5056582;28;47553;-68
2022/02/06 07:15:39;;;;;;;;;2.25;1.00;;;;;8.84;78.81;101553.63;5053046;28;46278;-68
2022/02/06 07:18:05;;;;;;;;;2.00;1.25;;;;;8.88;79.04;101556.13;5056308;28;45467;-68
2022/02/06 07:20:32;;;;;;;;;1.50;0.50;;;;;8.87;79.19;101548.28;5054964;28;45436;-68
2022/02/06 07:22:58;;;;;;;;;3.00;2.25;;;;;8.88;79.05;101550.03;5056280;28;46860;-68
2022/02/06 07:25:25;;;;;;;;;2.50;1.00;;;;;8.91;79.06;101559.56;5057554;28;45416;-68
2022/02/06 07:27:50;;;;;;;;;1.00;1.00;;;;;8.95;79.06;101561.22;5054617;28;45502;-68
2022/02/06 07:30:16;;;;;;;;;3.25;1.50;;;;;8.99;78.76;101552.41;5055891;28;45558;-67
2022/02/06 07:32:43;;;;;;;;;3.00;1.00;;;;;8.98;78.60;101545.41;5055377;28;47473;-67
2022/02/06 07:35:10;;;;;;;;;2.75;1.75;;;;;9.01;78.75;101550.59;5055510;28;45641;-68
2022/02/06 07:37:37;;;;;;;;;2.50;2.50;;;;;8.98;78.82;101548.94;5058033;28;45450;-68
2022/02/06 07:40:03;;;;;;;;;1.50;1.00;;;;;8.99;79.19;101542.78;5055875;28;45458;-68
2022/02/06 07:42:29;;;;;;;;;0.25;0.25;;;;;8.99;79.37;101539.28;5055636;28;46690;-68
2022/02/06 07:44:54;;;;;;;;;5.75;2.00;;;;;8.88;79.38;101521.19;5055582;28;45487;-68
2022/02/06 07:47:22;;;;;;;;;1.00;1.00;;;;;9.02;79.47;101534.81;5056146;28;45436;-68
2022/02/06 07:49:50;;;;;;;;;0.00;0.00;;;;;8.90;79.30;101495.78;5056271;28;45538;-68
2022/02/06 07:52:18;;;;;;;;;2.00;1.50;;;;;9.06;78.88;101510.25;5057019;28;47226;-68
2022/02/06 07:54:43;;;;;;;;;0.75;0.75;;;;;8.97;79.20;101497.38;5053119;28;45730;-68
2022/02/06 07:57:09;;;;;;;;;1.00;0.00;;;;;9.05;79.07;101498.06;5055753;28;45361;-68
2022/02/06 07:59:35;;;;;;;;;3.25;1.75;;;;;9.04;79.12;101500.72;5055230;28;45475;-68
2022/02/06 08:02:01;;;;;;;;;1.50;1.00;;;;;9.07;78.96;101493.63;5054518;28;46592;-69
2022/02/06 08:04:27;;;;;;;;;1.75;0.00;;;;;9.06;79.04;101480.56;5057572;28;45785;-68
2022/02/06 08:06:54;;;;;;;;;3.00;0.75;;;;;9.06;78.79;101470.06;5069153;28;45641;-68
2022/02/06 08:09:26;;;;;;;;;0.00;0.00;;;;;9.11;78.94;101484.78;5054988;28;45570;-68
2022/02/06 08:11:51;;;;;;;;;1.00;1.00;;;;;9.11;78.92;101465.56;5055361;28;46325;-68
2022/02/06 08:14:50;;;;;;;;;2.00;0.00;;;;;9.15;78.94;101470.72;5055159;28;45495;-68
2022/02/06 08:17:03;;;;;;;;;1.00;1.00;;;;;9.17;78.93;101448.81;5055022;27;45558;-68
2022/02/06 08:19:28;;;;;;;;;2.00;1.00;;;;;9.19;79.34;101439.13;5057149;28;45381;-68
2022/02/06 08:21:54;;;;;;;;;1.75;1.50;;;;;9.20;79.03;101438.25;5054270;28;45419;-68
2022/02/06 08:24:19;;;;;;;;;1.00;1.00;;;;;9.27;79.13;101435.44;5054332;28;45327;-68
2022/02/06 08:26:44;;;;;;;;;3.00;1.50;;;;;9.31;79.49;101441.47;5055284;28;45459;-68
2022/02/06 08:29:10;;;;;;;;;1.75;1.00;;;;;9.31;79.47;101437.06;5055098;28;49048;-68
2022/02/06 08:31:35;;;;;;;;;1.50;1.00;;;;;9.36;79.81;101434.34;5056580;28;46139;-68
2022/02/06 08:34:00;;;;;;;;;1.25;1.25;;;;;9.39;79.45;101428.97;5053131;28;45584;-68
2022/02/06 08:36:26;;;;;;;;;1.50;1.00;;;;;9.43;79.46;101433.25;5054667;28;45945;-68
2022/02/06 08:38:51;;;;;;;;;3.50;1.00;;;;;9.45;80.19;101427.97;5054488;28;45344;-68
2022/02/06 08:41:16;;;;;;;;;4.50;1.00;;;;;9.46;80.35;101424.47;5054604;28;47685;-68
2022/02/06 08:43:42;;;;;;;;;1.00;1.00;;;;;9.39;80.38;101410.63;5055873;28;45662;-68
2022/02/06 08:46:07;;;;;;;;;1.75;1.00;;;;;9.49;80.38;101417.34;5053145;28;45306;-68
2022/02/06 08:48:33;;;;;;;;;1.25;1.00;;;;;9.55;80.65;101401.44;5054735;28;45370;-68
2022/02/06 08:50:58;;;;;;;;;2.00;1.00;;;;;9.57;80.67;101410.13;5054786;28;46169;-68
2022/02/06 08:53:23;;;;;;;;;3.75;1.75;;;;;9.59;81.10;101416.19;5054449;28;54461;-68
2022/02/06 08:55:50;;;;;;;;;1.50;1.50;;;;;9.56;81.27;101397.06;5055426;28;45362;-68
2022/02/06 08:58:16;;;;;;;;;3.75;1.00;;;;;9.57;81.81;101393.53;5055710;28;45396;-68
2022/02/06 09:00:42;;;;;;;;;1.00;1.00;;;;;9.57;82.28;101397.00;5053685;28;46458;-68
2022/02/06 09:03:07;;;;;;;;;0.50;0.25;;;;;9.57;83.28;101394.38;5054167;28;45769;-68
2022/02/06 09:05:34;;;;;;;;;0.75;0.75;;;;;9.53;82.63;101384.88;5052767;28;45746;-68
2022/02/06 09:08:01;;;;;;;;;2.00;1.00;;;;;9.53;82.87;101392.75;5054262;28;45513;-68
2022/02/06 09:10:27;;;;;;;;;1.75;1.75;;;;;9.55;83.12;101374.31;5054856;28;46257;-68
2022/02/06 09:12:54;;;;;;;;;2.50;1.25;;;;;9.56;83.58;101366.44;5053937;28;45408;-68
2022/02/06 09:15:20;;;;;;;;;0.50;0.50;;;;;9.60;83.31;101352.28;5053578;28;45469;-68
2022/02/06 09:17:46;;;;;;;;;2.00;0.00;;;;;9.62;83.55;101358.38;5054317;28;45522;-68
2022/02/06 09:20:12;;;;;;;;;3.00;0.75;;;;;9.66;83.33;101362.63;5054401;28;46421;-68
2022/02/06 09:22:40;;;;;;;;;3.00;1.25;;;;;9.71;83.69;101346.75;5056217;28;45349;-68
2022/02/06 09:25:06;;;;;;;;;0.75;0.75;;;;;9.76;83.56;101357.09;5052207;28;45347;-68
2022/02/06 09:27:35;;;;;;;;;2.25;1.00;;;;;9.78;84.01;101358.78;5051628;28;45489;-67
2022/02/06 09:30:00;;;;;;;;;1.75;0.25;;;;;9.76;88.41;101360.59;5052873;28;47337;-67
2022/02/06 09:37:16;;;;;;;;;2.00;2.00;;;;;9.82;85.21;101349.06;5055430;28;45230;-67
2022/02/06 09:39:42;;;;;;;;;2.75;0.00;;;;;9.84;85.10;101340.22;5053004;28;55801;-67
2022/02/06 09:42:09;;;;;;;;;3.00;1.00;;;;;9.86;84.91;101335.78;5052815;28;45849;-67
2022/02/06 09:44:35;;;;;;;;;1.75;0.75;;;;;9.89;84.52;101346.19;5042028;28;45370;-67
2022/02/06 09:47:02;;;;;;;;;3.00;1.00;;;;;9.84;84.38;101332.34;5053279;28;45777;-67
2022/02/06 09:49:30;;;;;;;;;1.50;1.00;;;;;9.94;85.38;101338.19;5053205;28;47474;-67
2022/02/06 09:51:56;;;;;;;;;0.25;0.00;;;;;9.93;85.74;101334.69;5052740;28;45859;-67
2022/02/06 09:54:23;;;;;;;;;1.25;0.75;;;;;9.98;85.51;101334.56;5053507;28;45408;-67
2022/02/06 09:56:54;;;;;;;;;1.00;1.00;;;;;10.03;85.33;101329.16;5053516;28;45794;-67
2022/02/06 09:59:21;;;;;;;;;5.00;0.50;;;;;10.02;84.68;101337.94;5052944;28;46152;-67
2022/02/06 10:01:51;;;;;;;;;1.75;1.00;;;;;10.05;85.34;101335.22;5041452;28;45912;-67
2022/02/06 10:04:19;;;;;;;;;2.00;2.00;;;;;10.04;84.93;101334.38;5053248;28;45769;-67
2022/02/06 10:07:09;;;;;;;;;1.25;1.25;;;;;10.08;85.60;101325.50;5050935;28;45435;-67
2022/02/06 10:09:40;;;;;;;;;2.00;0.00;;;;;10.12;85.33;101327.09;5048027;28;46426;-67
2022/02/06 10:12:07;;;;;;;;;3.50;1.75;;;;;10.18;85.23;101321.66;5053240;28;46091;-67
2022/02/06 10:14:36;;;;;;;;;2.50;1.00;;;;;10.22;85.17;101324.19;5052901;28;45515;-67
2022/02/06 10:17:02;;;;;;;;;2.50;1.25;;;;;10.25;84.75;101314.47;5053348;28;45650;-67
2022/02/06 10:19:28;;;;;;;;;2.00;1.00;;;;;10.27;85.17;101323.16;5055336;28;46441;-67
2022/02/06 10:21:55;;;;;;;;;2.00;1.00;;;;;10.30;85.29;101317.81;5053091;28;45349;-67
2022/02/06 10:24:30;;;;;;;;;2.00;2.00;;;;;10.34;84.75;101318.59;5053038;28;45501;-67
2022/02/06 10:27:16;;;;;;;;;0.75;0.50;;;;;10.37;85.40;101326.34;5053243;28;45464;-67
2022/02/06 10:29:50;;;;;;;;;1.00;1.00;;;;;10.38;85.19;101326.28;5052890;28;45563;-67
2022/02/06 10:32:18;;;;;;;;;0.50;0.50;;;;;10.40;85.29;101328.88;5053024;28;45841;-67
2022/02/06 10:34:45;;;;;;;;;2.00;1.00;;;;;10.38;85.12;101307.03;5054620;28;45418;-67
2022/02/06 10:37:23;;;;;;;;;1.00;1.00;;;;;10.43;85.25;101315.63;5053874;28;45364;-67
2022/02/06 10:40:04;;;;;;;;;1.00;1.00;;;;;10.48;85.20;101315.47;5051471;28;46199;-67
2022/02/06 10:42:31;;;;;;;;;2.50;2.00;;;;;10.57;85.51;101313.41;5052619;28;45640;-67
2022/02/06 10:45:29;;;;;;;;;3.50;2.25;;;;;10.66;85.57;101318.34;5051943;28;47010;-67
2022/02/06 10:47:56;;;;;;;;;4.50;2.00;;;;;10.71;85.16;101305.06;5052769;28;45448;-67
2022/02/06 10:50:28;;;;;;;;;1.00;1.00;;;;;10.73;85.88;101326.03;5052033;28;45511;-67
2022/02/06 10:53:09;;;;;;;;;3.75;2.25;;;;;10.75;85.24;101314.53;5049835;28;45550;-67
2022/02/06 10:55:49;;;;;;;;;2.50;2.00;;;;;10.76;84.77;101299.66;5050322;28;45634;-67
2022/02/06 10:58:17;;;;;;;;;1.00;1.00;;;;;10.79;84.71;101289.00;5053821;28;45445;-67
2022/02/06 11:00:42;;;;;;;;;1.50;1.00;;;;;10.80;84.78;101277.56;5050348;28;45858;-67
2022/02/06 11:03:29;;;;;;;;;1.00;1.00;;;;;10.75;84.88;101271.63;5052106;28;45734;-67
2022/02/06 11:06:05;;;;;;;;;3.00;2.00;;;;;10.77;84.87;101312.72;5052624;28;45392;-67
2022/02/06 11:08:32;;;;;;;;;2.00;2.00;;;;;10.77;84.98;101281.19;5050789;28;45612;-67
2022/02/06 11:10:59;;;;;;;;;1.00;1.00;;;;;10.89;84.86;101274.63;5050346;28;47212;-67
2022/02/06 11:13:27;;;;;;;;;2.00;2.00;;;;;10.96;84.92;101266.47;5054295;28;45456;-67
2022/02/06 11:15:52;;;;;;;;;1.50;1.00;;;;;11.06;84.84;101253.81;5051102;28;45553;-67
2022/02/06 11:18:23;;;;;;;;;3.50;3.00;;;;;11.16;84.42;101235.94;5051789;28;45317;-67
2022/02/06 11:20:53;;;;;;;;;3.75;2.00;;;;;11.18;83.97;101237.63;5050392;28;46145;-67
2022/02/06 11:23:19;;;;;;;;;2.00;2.00;;;;;11.16;84.08;101235.94;5051347;28;45769;-67
2022/02/06 11:25:45;;;;;;;;;4.00;3.25;;;;;11.20;84.09;101238.41;5052202;28;45487;-67
2022/02/06 11:28:11;;;;;;;;;3.75;3.75;;;;;11.25;83.96;101222.44;5053191;28;45556;-67
2022/02/06 11:30:38;;;;;;;;;2.00;2.00;;;;;11.33;84.00;101206.34;5056210;28;45540;-66
2022/02/06 11:33:05;;;;;;;;;2.75;2.75;;;;;11.48;83.89;101188.22;5060971;27;45753;-67
2022/02/06 11:35:31;;;;;;;;;2.00;2.00;;;;;11.60;83.20;101199.19;5053914;28;45616;-67
2022/02/06 11:44:08;;;;;;;;;2.00;2.00;;;;;11.67;82.35;101187.47;5056824;28;45808;-66
2022/02/06 11:46:39;;;;;;;;;1.75;1.75;;;;;11.63;82.12;101188.50;5054269;28;45367;-67
2022/02/06 11:49:11;;;;;;;;;6.00;2.75;;;;;11.58;82.34;101188.69;5051874;28;45474;-67
2022/02/06 11:51:48;;;;;;;;;3.00;2.50;;;;;11.56;82.25;101166.84;5051516;28;47356;-66
2022/02/06 11:54:30;;;;;;;;;5.25;3.25;;;;;11.61;82.13;101166.66;5059879;28;45436;-66
2022/02/06 11:57:24;;;;;;;;;2.00;1.25;;;;;11.65;82.24;101176.16;5053320;28;45580;-67
2022/02/06 12:00:02;;;;;;;;;5.50;1.25;;;;;11.65;82.15;101166.47;5056187;28;45506;-66
2022/02/06 12:02:29;;;;;;;;;5.00;3.00;;;;;11.65;82.49;101158.59;5055742;28;46169;-66
2022/02/06 12:05:13;;;;;;;;;3.50;3.00;;;;;11.70;82.67;101150.50;5058897;28;45485;-67
2022/02/06 12:07:59;;;;;;;;;3.00;2.00;;;;;11.79;82.82;101147.47;5053211;28;45477;-67
2022/02/06 12:10:34;;;;;;;;;6.50;1.00;;;;;11.79;82.36;101163.25;5055490;28;45403;-66
2022/02/06 12:13:26;;;;;;;;;1.25;1.25;;;;;11.73;82.69;101161.75;5062034;28;46645;-67
2022/02/06 12:15:53;;;;;;;;;2.75;1.75;;;;;11.76;82.64;101153.72;5056691;27;45348;-66
2022/02/06 12:18:42;;;;;;;;;3.75;2.50;;;;;11.83;83.01;101164.03;5055859;28;45459;-67
2022/02/06 12:21:14;;;;;;;;;2.00;1.00;;;;;11.96;83.01;101154.72;5055367;28;45506;-67
2022/02/06 12:23:41;;;;;;;;;2.00;1.00;;;;;12.04;82.24;101149.13;5054569;28;46156;-67
2022/02/06 12:26:30;;;;;;;;;1.00;1.00;;;;;12.08;82.06;101143.66;5039019;28;45985;-66
2022/02/06 12:28:59;;;;;;;;;1.00;0.00;;;;;12.13;81.86;101133.78;5055168;28;45554;-66
2022/02/06 12:31:30;;;;;;;;;1.50;0.50;;;;;12.20;82.79;101137.84;5057148;28;45445;-67
2022/02/06 12:34:10;;;;;;;;;5.50;1.75;;;;;12.27;81.93;101122.66;5060612;28;47276;-67
2022/02/06 12:39:33;;;;;;;;;2.00;2.00;;;;;12.72;80.89;101124.13;5055656;28;45475;-67
2022/02/06 12:42:00;;;;;;;;;3.50;1.00;;;;;12.97;81.58;101121.22;5054871;28;49827;-68
2022/02/06 12:44:27;;;;;;;;;7.25;0.50;;;;;13.09;80.65;101119.78;5053549;28;47211;-67
2022/02/06 12:46:58;;;;;;;;;0.00;0.00;;;;;13.18;79.88;101124.63;5054860;28;46034;-67
2022/02/06 12:49:29;;;;;;;;;1.25;0.75;;;;;13.18;79.33;101108.81;5055202;28;45385;-68
2022/02/06 12:51:57;;;;;;;;;4.00;1.75;;;;;13.11;79.06;101102.13;5055934;28;45423;-68
2022/02/06 12:54:23;;;;;;;;;1.75;1.75;;;;;13.01;79.28;101110.47;5058034;28;45719;-70
2022/02/06 12:56:53;;;;;;;;;3.50;2.00;;;;;12.95;79.17;101112.53;5079570;27;45543;-70
2022/02/06 12:59:22;;;;;;;;;1.00;0.00;;;;;12.89;79.15;101105.75;5054727;28;45503;-70
2022/02/06 13:01:49;;;;;;;;;1.00;1.00;;;;;12.85;78.95;101101.56;5055603;28;45290;-70
2022/02/06 13:04:17;;;;;;;;;2.00;1.00;;;;;12.77;79.26;101112.44;5055860;28;47202;-69
2022/02/06 13:06:48;;;;;;;;;2.00;1.00;;;;;12.72;78.97;101093.34;5052101;28;45742;-69
2022/02/06 13:09:30;;;;;;;;;1.00;1.00;;;;;12.68;79.36;101086.50;5054395;28;45440;-69
2022/02/06 13:21:16;;;;;;;;;0.50;0.25;;;;;12.42;82.47;101115.81;5013358;28;45440;-68
2022/02/06 13:23:18;;;;;;;;;0.25;0.00;;;;;12.35;82.25;101112.59;4999810;28;45541;-69
2022/02/06 13:31:19;;;;;;;;;2.00;0.00;;;;;12.26;83.01;101119.13;5010972;28;45590;-69
2022/02/06 13:36:49;;;;;;;;;5.00;1.75;;;;;12.20;83.80;101110.66;5012433;28;45858;-68
2022/02/06 13:39:24;;;;;;;;;1.75;1.00;;;;;12.18;83.59;101110.72;5012518;28;45516;-68
2022/02/06 13:41:51;;;;;;;;;1.00;1.00;;;;;12.19;83.44;101107.16;5012962;28;45544;-68
2022/02/06 13:44:19;;;;;;;;;2.00;2.00;;;;;12.17;83.92;101111.66;5012962;28;45278;-68
2022/02/06 13:46:46;;;;;;;;;0.00;0.00;;;;;12.16;83.34;101103.78;5013018;28;48043;-68
2022/02/06 13:49:12;;;;;;;;;3.00;2.00;;;;;12.12;83.74;101096.97;5012335;28;45522;-68
2022/02/06 13:51:48;;;;;;;;;4.25;4.25;;;;;12.11;83.65;101096.13;5012087;28;45400;-68
2022/02/06 13:54:15;;;;;;;;;5.50;2.00;;;;;12.18;83.66;101086.16;5030588;28;45700;-68
2022/02/06 13:56:41;;;;;;;;;2.50;2.00;;;;;12.20;83.67;101071.97;5067196;27;45426;-68
2022/02/06 13:59:08;;;;;;;;;0.00;0.00;;;;;12.22;83.78;101064.03;5057548;28;46052;-69
2022/02/06 14:01:45;;;;;;;;;2.00;1.00;;;;;12.26;84.42;101068.22;5055603;28;45277;-68
2022/02/06 14:04:19;;;;;;;;;1.75;1.00;;;;;12.26;84.23;101057.66;5056654;28;45324;-69
2022/02/06 14:06:52;;;;;;;;;4.00;1.00;;;;;12.20;84.23;101043.00;5057862;28;46527;-67
2022/02/06 14:10:00;;;;;;;;;1.00;1.00;;;;;12.24;84.02;101044.56;5052729;28;45451;-67
2022/02/06 14:12:20;;;;;;;;;3.25;1.00;;;;;12.19;83.78;101051.81;5046602;28;45544;-67